sensor_id;sensor_type;location;lat;lon;timestamp;P1;durP1;ratioP1;P2;durP2;ratioP2
10440;SDS011;5268;49.346;9.522;2022-12-10T04:24:52;20.45;;;14.93;;
10440;SDS011;5268;49.346;9.522;2022-12-10T04:30:23;19.80;;;13.93;;
10440;SDS011;5268;49.346;9.522;2022-12-10T04:35:25;20.65;;;14.32;;
10440;SDS011;5268;49.346;9.522;2022-12-10T04:40:28;19.80;;;14.40;;
10440;SDS011;5268;49.346;9.522;2022-12-10T04:45:33;21.13;;;15.05;;
10440;SDS011;5268;49.346;9.522;2022-12-10T04:50:35;22.08;;;15.82;;
10440;SDS011;5268;49.346;9.522;2022-12-10T04:55:39;20.83;;;14.93;;
10440;SDS011;5268;49.346;9.522;2022-12-10T05:00:41;19.92;;;14.57;;
10440;SDS011;5268;49.346;9.522;2022-12-10T05:05:43;18.10;;;13.70;;
10440;SDS011;5268;49.346;9.522;2022-12-10T05:10:46;18.67;;;13.63;;
10440;SDS011;5268;49.346;9.522;2022-12-10T05:15:48;18.35;;;13.23;;
10440;SDS011;5268;49.346;9.522;2022-12-10T05:20:50;16.45;;;13.30;;
10440;SDS011;5268;49.346;9.522;2022-12-10T05:25:58;20.30;;;14.77;;
10440;SDS011;5268;49.346;9.522;2022-12-10T05:31:01;18.70;;;13.52;;
10440;SDS011;5268;49.346;9.522;2022-12-10T05:36:03;17.08;;;13.23;;
10440;SDS011;5268;49.346;9.522;2022-12-10T05:41:09;20.45;;;14.38;;
10440;SDS011;5268;49.346;9.522;2022-12-10T05:46:14;17.73;;;13.57;;
10440;SDS011;5268;49.346;9.522;2022-12-10T05:51:18;20.33;;;13.70;;
10440;SDS011;5268;49.346;9.522;2022-12-10T05:56:24;21.88;;;13.75;;
10440;SDS011;5268;49.346;9.522;2022-12-10T06:01:27;18.23;;;14.00;;
10440;SDS011;5268;49.346;9.522;2022-12-10T06:06:32;20.63;;;14.85;;
10440;SDS011;5268;49.346;9.522;2022-12-10T06:11:37;22.20;;;16.33;;
10440;SDS011;5268;49.346;9.522;2022-12-10T06:16:39;20.40;;;14.10;;
10440;SDS011;5268;49.346;9.522;2022-12-10T06:21:42;16.58;;;12.63;;
10440;SDS011;5268;49.346;9.522;2022-12-10T06:26:46;19.88;;;13.32;;
10440;SDS011;5268;49.346;9.522;2022-12-10T06:31:48;18.52;;;13.55;;
10440;SDS011;5268;49.346;9.522;2022-12-10T06:36:50;18.48;;;13.68;;
10440;SDS011;5268;49.346;9.522;2022-12-10T06:41:53;20.20;;;15.00;;
10440;SDS011;5268;49.346;9.522;2022-12-10T06:46:55;17.90;;;14.52;;
10440;SDS011;5268;49.346;9.522;2022-12-10T06:51:57;18.83;;;14.27;;
10440;SDS011;5268;49.346;9.522;2022-12-10T06:57:01;19.30;;;13.82;;
10440;SDS011;5268;49.346;9.522;2022-12-10T07:02:03;20.38;;;14.93;;
10440;SDS011;5268;49.346;9.522;2022-12-10T07:07:06;19.38;;;14.07;;
10440;SDS011;5268;49.346;9.522;2022-12-10T07:12:09;19.83;;;13.98;;
10440;SDS011;5268;49.346;9.522;2022-12-10T07:17:11;22.30;;;15.48;;
10440;SDS011;5268;49.346;9.522;2022-12-10T07:22:13;22.02;;;15.80;;
10440;SDS011;5268;49.346;9.522;2022-12-10T07:27:17;22.58;;;16.17;;
10440;SDS011;5268;49.346;9.522;2022-12-10T07:32:19;21.95;;;15.32;;
10440;SDS011;5268;49.346;9.522;2022-12-10T07:37:21;20.73;;;14.95;;
10440;SDS011;5268;49.346;9.522;2022-12-10T07:42:25;19.67;;;14.32;;
10440;SDS011;5268;49.346;9.522;2022-12-10T07:47:27;17.67;;;12.52;;
10440;SDS011;5268;49.346;9.522;2022-12-10T07:52:29;16.48;;;12.23;;
10440;SDS011;5268;49.346;9.522;2022-12-10T07:57:33;16.38;;;12.23;;
10440;SDS011;5268;49.346;9.522;2022-12-10T08:02:35;16.20;;;12.07;;
10440;SDS011;5268;49.346;9.522;2022-12-10T08:07:37;15.13;;;11.05;;
10440;SDS011;5268;49.346;9.522;2022-12-10T08:12:41;15.52;;;11.50;;
10440;SDS011;5268;49.346;9.522;2022-12-10T08:17:43;14.43;;;11.02;;
10440;SDS011;5268;49.346;9.522;2022-12-10T08:22:45;14.65;;;10.93;;
10440;SDS011;5268;49.346;9.522;2022-12-10T08:27:48;17.80;;;12.75;;
10440;SDS011;5268;49.346;9.522;2022-12-10T08:32:50;19.58;;;13.20;;
10440;SDS011;5268;49.346;9.522;2022-12-10T08:37:52;20.85;;;14.40;;
10440;SDS011;5268;49.346;9.522;2022-12-10T08:42:56;18.15;;;13.10;;
10440;SDS011;5268;49.346;9.522;2022-12-10T08:47:58;18.35;;;14.10;;
10440;SDS011;5268;49.346;9.522;2022-12-10T08:53:00;19.98;;;13.73;;
10440;SDS011;5268;49.346;9.522;2022-12-10T08:58:04;17.95;;;14.07;;
10440;SDS011;5268;49.346;9.522;2022-12-10T09:03:07;18.63;;;13.10;;
10440;SDS011;5268;49.346;9.522;2022-12-10T09:08:09;19.95;;;13.45;;
10440;SDS011;5268;49.346;9.522;2022-12-10T09:13:13;17.50;;;13.15;;
10440;SDS011;5268;49.346;9.522;2022-12-10T09:18:15;17.33;;;12.35;;
10440;SDS011;5268;49.346;9.522;2022-12-10T09:23:17;17.98;;;12.05;;
10440;SDS011;5268;49.346;9.522;2022-12-10T09:28:21;18.15;;;12.40;;
10440;SDS011;5268;49.346;9.522;2022-12-10T09:33:23;16.83;;;11.88;;
10440;SDS011;5268;49.346;9.522;2022-12-10T09:38:25;16.13;;;12.20;;
10440;SDS011;5268;49.346;9.522;2022-12-10T09:43:32;15.60;;;11.68;;
10440;SDS011;5268;49.346;9.522;2022-12-10T09:48:47;13.95;;;10.27;;
10440;SDS011;5268;49.346;9.522;2022-12-10T09:53:57;15.05;;;11.25;;
10440;SDS011;5268;49.346;9.522;2022-12-10T09:59:02;14.63;;;10.82;;
10440;SDS011;5268;49.346;9.522;2022-12-10T10:04:13;15.68;;;11.10;;
10440;SDS011;5268;49.346;9.522;2022-12-10T10:09:15;16.20;;;11.75;;
10440;SDS011;5268;49.346;9.522;2022-12-10T10:14:22;15.55;;;11.82;;
10440;SDS011;5268;49.346;9.522;2022-12-10T10:19:28;16.23;;;12.52;;
10440;SDS011;5268;49.346;9.522;2022-12-10T10:24:34;16.35;;;11.15;;
10440;SDS011;5268;49.346;9.522;2022-12-10T10:29:38;16.48;;;11.32;;
10440;SDS011;5268;49.346;9.522;2022-12-10T10:34:40;16.35;;;12.23;;
10440;SDS011;5268;49.346;9.522;2022-12-10T10:39:46;16.35;;;12.27;;
10440;SDS011;5268;49.346;9.522;2022-12-10T10:44:51;17.63;;;12.77;;
10440;SDS011;5268;49.346;9.522;2022-12-10T10:49:53;17.15;;;13.15;;
10440;SDS011;5268;49.346;9.522;2022-12-10T10:54:55;16.65;;;12.07;;
10440;SDS011;5268;49.346;9.522;2022-12-10T11:00:03;17.27;;;12.32;;
10440;SDS011;5268;49.346;9.522;2022-12-10T11:05:07;15.90;;;11.27;;
10440;SDS011;5268;49.346;9.522;2022-12-10T11:10:17;20.30;;;14.35;;
10440;SDS011;5268;49.346;9.522;2022-12-10T11:15:33;21.90;;;14.88;;
10440;SDS011;5268;49.346;9.522;2022-12-10T11:20:36;16.77;;;12.40;;
10440;SDS011;5268;49.346;9.522;2022-12-10T11:25:41;17.92;;;12.30;;
10440;SDS011;5268;49.346;9.522;2022-12-10T11:30:51;16.92;;;12.07;;
10440;SDS011;5268;49.346;9.522;2022-12-10T11:36:06;13.65;;;10.15;;
10440;SDS011;5268;49.346;9.522;2022-12-10T11:41:23;16.10;;;11.50;;
10440;SDS011;5268;49.346;9.522;2022-12-10T11:46:42;15.73;;;12.20;;
10440;SDS011;5268;49.346;9.522;2022-12-10T11:51:58;16.90;;;12.13;;
10440;SDS011;5268;49.346;9.522;2022-12-10T11:57:06;18.33;;;11.65;;
10440;SDS011;5268;49.346;9.522;2022-12-10T12:02:24;16.05;;;10.90;;
10440;SDS011;5268;49.346;9.522;2022-12-10T12:07:48;17.02;;;12.57;;
10440;SDS011;5268;49.346;9.522;2022-12-10T12:12:59;17.45;;;12.20;;
10440;SDS011;5268;49.346;9.522;2022-12-10T12:18:09;18.45;;;11.95;;
10440;SDS011;5268;49.346;9.522;2022-12-10T12:23:21;14.75;;;11.80;;
10440;SDS011;5268;49.346;9.522;2022-12-10T12:28:26;15.05;;;10.88;;
10440;SDS011;5268;49.346;9.522;2022-12-10T12:33:35;14.65;;;10.52;;
10440;SDS011;5268;49.346;9.522;2022-12-10T12:38:45;15.43;;;11.30;;
10440;SDS011;5268;49.346;9.522;2022-12-10T12:43:57;14.43;;;11.25;;
10440;SDS011;5268;49.346;9.522;2022-12-10T12:49:09;14.65;;;10.65;;
10440;SDS011;5268;49.346;9.522;2022-12-10T12:54:15;14.82;;;10.07;;
10440;SDS011;5268;49.346;9.522;2022-12-10T12:59:19;14.73;;;11.02;;
10440;SDS011;5268;49.346;9.522;2022-12-10T13:04:34;16.88;;;11.32;;
10440;SDS011;5268;49.346;9.522;2022-12-10T13:09:42;10.80;;;8.25;;
10440;SDS011;5268;49.346;9.522;2022-12-10T13:14:54;10.63;;;8.18;;
10440;SDS011;5268;49.346;9.522;2022-12-10T13:20:35;9.60;;;7.30;;
10440;SDS011;5268;49.346;9.522;2022-12-10T13:25:57;9.95;;;7.82;;
10440;SDS011;5268;49.346;9.522;2022-12-10T13:31:07;10.30;;;7.72;;
10440;SDS011;5268;49.346;9.522;2022-12-10T13:36:33;10.30;;;8.32;;
10440;SDS011;5268;49.346;9.522;2022-12-10T13:41:38;10.82;;;8.23;;
10440;SDS011;5268;49.346;9.522;2022-12-10T13:47:00;12.25;;;8.93;;
10440;SDS011;5268;49.346;9.522;2022-12-10T13:52:11;15.10;;;10.65;;
10440;SDS011;5268;49.346;9.522;2022-12-10T13:57:24;11.68;;;8.95;;
10440;SDS011;5268;49.346;9.522;2022-12-10T14:02:48;10.95;;;8.63;;
10440;SDS011;5268;49.346;9.522;2022-12-10T14:08:03;9.55;;;7.53;;
10440;SDS011;5268;49.346;9.522;2022-12-10T14:13:07;12.30;;;9.23;;
10440;SDS011;5268;49.346;9.522;2022-12-10T14:18:13;10.68;;;8.00;;
10440;SDS011;5268;49.346;9.522;2022-12-10T14:23:23;11.65;;;8.13;;
10440;SDS011;5268;49.346;9.522;2022-12-10T14:28:39;11.40;;;8.65;;
10440;SDS011;5268;49.346;9.522;2022-12-10T14:33:43;9.95;;;7.38;;
10440;SDS011;5268;49.346;9.522;2022-12-10T14:38:48;10.45;;;7.85;;
10440;SDS011;5268;49.346;9.522;2022-12-10T14:43:51;10.95;;;7.80;;
10440;SDS011;5268;49.346;9.522;2022-12-10T14:48:54;11.00;;;7.53;;
10440;SDS011;5268;49.346;9.522;2022-12-10T14:53:57;10.98;;;8.10;;
10440;SDS011;5268;49.346;9.522;2022-12-10T14:59:02;11.20;;;7.70;;
10440;SDS011;5268;49.346;9.522;2022-12-10T15:04:11;12.68;;;7.80;;
10440;SDS011;5268;49.346;9.522;2022-12-10T15:09:18;10.88;;;8.18;;
10440;SDS011;5268;49.346;9.522;2022-12-10T15:14:23;11.68;;;8.40;;
10440;SDS011;5268;49.346;9.522;2022-12-10T15:19:30;12.52;;;9.20;;
10440;SDS011;5268;49.346;9.522;2022-12-10T15:24:37;13.25;;;9.02;;
10440;SDS011;5268;49.346;9.522;2022-12-10T15:29:42;13.77;;;9.40;;
10440;SDS011;5268;49.346;9.522;2022-12-10T15:34:45;9.85;;;8.05;;
10440;SDS011;5268;49.346;9.522;2022-12-10T15:39:52;17.10;;;12.23;;
10440;SDS011;5268;49.346;9.522;2022-12-10T15:44:56;18.50;;;14.00;;
10440;SDS011;5268;49.346;9.522;2022-12-10T15:50:01;9.98;;;7.82;;
10440;SDS011;5268;49.346;9.522;2022-12-10T15:55:05;13.20;;;9.85;;
10440;SDS011;5268;49.346;9.522;2022-12-10T16:00:08;11.88;;;8.40;;
10440;SDS011;5268;49.346;9.522;2022-12-10T16:05:18;9.18;;;7.53;;
10440;SDS011;5268;49.346;9.522;2022-12-10T16:10:24;14.05;;;10.30;;
10440;SDS011;5268;49.346;9.522;2022-12-10T16:15:29;14.23;;;10.13;;
10440;SDS011;5268;49.346;9.522;2022-12-10T16:20:35;20.73;;;16.02;;
10440;SDS011;5268;49.346;9.522;2022-12-10T16:25:39;33.42;;;21.67;;
10440;SDS011;5268;49.346;9.522;2022-12-10T16:30:44;24.42;;;16.55;;
10440;SDS011;5268;49.346;9.522;2022-12-10T16:35:49;21.50;;;15.20;;
10440;SDS011;5268;49.346;9.522;2022-12-10T16:40:54;19.63;;;12.82;;
10440;SDS011;5268;49.346;9.522;2022-12-10T16:45:57;13.57;;;10.27;;
10440;SDS011;5268;49.346;9.522;2022-12-10T16:50:59;13.57;;;10.25;;
10440;SDS011;5268;49.346;9.522;2022-12-10T16:56:02;13.05;;;9.63;;
10440;SDS011;5268;49.346;9.522;2022-12-10T17:01:07;12.60;;;9.85;;
10440;SDS011;5268;49.346;9.522;2022-12-10T17:06:19;12.95;;;9.25;;
10440;SDS011;5268;49.346;9.522;2022-12-10T17:11:24;16.63;;;12.32;;
10440;SDS011;5268;49.346;9.522;2022-12-10T17:16:48;14.38;;;10.32;;
10440;SDS011;5268;49.346;9.522;2022-12-10T17:21:51;26.58;;;19.80;;
10440;SDS011;5268;49.346;9.522;2022-12-10T17:26:55;31.40;;;19.98;;
10440;SDS011;5268;49.346;9.522;2022-12-10T17:32:01;26.02;;;18.45;;
10440;SDS011;5268;49.346;9.522;2022-12-10T17:37:07;25.40;;;17.20;;
10440;SDS011;5268;49.346;9.522;2022-12-10T17:42:12;23.85;;;16.83;;
10440;SDS011;5268;49.346;9.522;2022-12-10T17:47:15;21.85;;;15.15;;
10440;SDS011;5268;49.346;9.522;2022-12-10T17:52:20;17.58;;;13.25;;
10440;SDS011;5268;49.346;9.522;2022-12-10T17:57:23;18.90;;;13.48;;
10440;SDS011;5268;49.346;9.522;2022-12-10T18:02:26;20.52;;;14.13;;
10440;SDS011;5268;49.346;9.522;2022-12-10T18:07:28;19.02;;;13.50;;
10440;SDS011;5268;49.346;9.522;2022-12-10T18:12:32;15.43;;;11.15;;
10440;SDS011;5268;49.346;9.522;2022-12-10T18:17:34;17.90;;;12.45;;
10440;SDS011;5268;49.346;9.522;2022-12-10T18:22:36;18.67;;;13.52;;
10440;SDS011;5268;49.346;9.522;2022-12-10T18:27:39;19.90;;;13.25;;
10440;SDS011;5268;49.346;9.522;2022-12-10T18:32:41;18.35;;;12.57;;
10440;SDS011;5268;49.346;9.522;2022-12-10T18:37:44;15.13;;;11.57;;
10440;SDS011;5268;49.346;9.522;2022-12-10T18:42:48;16.60;;;12.00;;
10440;SDS011;5268;49.346;9.522;2022-12-10T18:47:51;16.63;;;11.93;;
10440;SDS011;5268;49.346;9.522;2022-12-10T18:52:54;16.10;;;12.30;;
10440;SDS011;5268;49.346;9.522;2022-12-10T18:57:57;16.40;;;11.77;;
10440;SDS011;5268;49.346;9.522;2022-12-10T19:02:59;17.40;;;12.27;;
10440;SDS011;5268;49.346;9.522;2022-12-10T19:08:02;18.35;;;13.77;;
10440;SDS011;5268;49.346;9.522;2022-12-10T19:13:06;21.23;;;15.27;;
10440;SDS011;5268;49.346;9.522;2022-12-10T19:18:09;21.13;;;15.52;;
10440;SDS011;5268;49.346;9.522;2022-12-10T19:23:13;20.00;;;14.68;;
10440;SDS011;5268;49.346;9.522;2022-12-10T19:28:16;22.52;;;15.43;;
10440;SDS011;5268;49.346;9.522;2022-12-10T19:33:18;19.98;;;14.38;;
10440;SDS011;5268;49.346;9.522;2022-12-10T19:38:20;18.98;;;14.15;;
10440;SDS011;5268;49.346;9.522;2022-12-10T19:43:24;20.05;;;13.82;;
10440;SDS011;5268;49.346;9.522;2022-12-10T19:48:26;17.08;;;12.20;;
10440;SDS011;5268;49.346;9.522;2022-12-10T19:53:28;14.80;;;11.27;;
10440;SDS011;5268;49.346;9.522;2022-12-10T19:58:31;15.32;;;11.13;;
10440;SDS011;5268;49.346;9.522;2022-12-10T20:03:33;15.30;;;10.43;;
10440;SDS011;5268;49.346;9.522;2022-12-10T20:08:35;14.63;;;10.65;;
10440;SDS011;5268;49.346;9.522;2022-12-10T20:13:39;14.38;;;10.77;;
10440;SDS011;5268;49.346;9.522;2022-12-10T20:18:42;14.70;;;11.00;;
10440;SDS011;5268;49.346;9.522;2022-12-10T20:23:44;15.77;;;11.77;;
10440;SDS011;5268;49.346;9.522;2022-12-10T20:28:48;17.38;;;12.20;;
10440;SDS011;5268;49.346;9.522;2022-12-10T20:33:51;19.63;;;14.98;;
10440;SDS011;5268;49.346;9.522;2022-12-10T20:38:53;23.17;;;16.45;;
10440;SDS011;5268;49.346;9.522;2022-12-10T20:43:56;42.05;;;27.65;;
10440;SDS011;5268;49.346;9.522;2022-12-10T20:48:58;24.80;;;17.98;;
10440;SDS011;5268;49.346;9.522;2022-12-10T20:54:00;26.58;;;17.35;;
10440;SDS011;5268;49.346;9.522;2022-12-10T20:59:04;24.42;;;17.13;;
10440;SDS011;5268;49.346;9.522;2022-12-10T21:04:07;20.08;;;15.07;;
10440;SDS011;5268;49.346;9.522;2022-12-10T21:09:09;20.60;;;14.57;;
10440;SDS011;5268;49.346;9.522;2022-12-10T21:14:14;18.40;;;12.63;;
10440;SDS011;5268;49.346;9.522;2022-12-10T21:19:16;17.98;;;13.45;;
10440;SDS011;5268;49.346;9.522;2022-12-10T21:24:19;19.33;;;14.30;;
10440;SDS011;5268;49.346;9.522;2022-12-10T21:29:22;22.65;;;14.65;;
10440;SDS011;5268;49.346;9.522;2022-12-10T21:34:24;24.33;;;18.27;;
10440;SDS011;5268;49.346;9.522;2022-12-10T21:39:26;21.77;;;15.43;;
10440;SDS011;5268;49.346;9.522;2022-12-10T21:44:30;19.77;;;14.70;;
10440;SDS011;5268;49.346;9.522;2022-12-10T21:49:32;23.40;;;16.13;;
10440;SDS011;5268;49.346;9.522;2022-12-10T21:54:34;19.95;;;14.95;;
10440;SDS011;5268;49.346;9.522;2022-12-10T21:59:37;21.20;;;16.67;;
10440;SDS011;5268;49.346;9.522;2022-12-10T22:04:40;20.70;;;16.08;;
10440;SDS011;5268;49.346;9.522;2022-12-10T22:09:42;17.63;;;13.50;;
10440;SDS011;5268;49.346;9.522;2022-12-10T22:14:45;15.88;;;11.68;;
10440;SDS011;5268;49.346;9.522;2022-12-10T22:19:47;13.23;;;10.18;;
10440;SDS011;5268;49.346;9.522;2022-12-10T22:24:49;10.57;;;8.15;;
10440;SDS011;5268;49.346;9.522;2022-12-10T22:29:53;10.10;;;7.55;;
